sensor_id;sensor_type;location;lat;lon;timestamp;P1;durP1;ratioP1;P2;durP2;ratioP2
53253;SDS011;39148;53.332;6.922;2022-08-11T00:02:27;3.40;;;0.68;;
53253;SDS011;39148;53.332;6.922;2022-08-11T00:04:56;3.17;;;1.15;;
53253;SDS011;39148;53.332;6.922;2022-08-11T00:07:28;2.42;;;0.90;;
53253;SDS011;39148;53.332;6.922;2022-08-11T00:09:54;2.00;;;0.75;;
53253;SDS011;39148;53.332;6.922;2022-08-11T00:12:20;3.55;;;0.90;;
53253;SDS011;39148;53.332;6.922;2022-08-11T00:14:54;3.38;;;0.80;;
53253;SDS011;39148;53.332;6.922;2022-08-11T00:17:21;3.13;;;1.13;;
53253;SDS011;39148;53.332;6.922;2022-08-11T00:19:52;1.60;;;0.80;;
53253;SDS011;39148;53.332;6.922;2022-08-11T00:22:29;2.45;;;0.90;;
53253;SDS011;39148;53.332;6.922;2022-08-11T00:24:57;3.97;;;0.73;;
53253;SDS011;39148;53.332;6.922;2022-08-11T00:27:31;1.92;;;0.70;;
53253;SDS011;39148;53.332;6.922;2022-08-11T00:29:58;1.63;;;0.60;;
53253;SDS011;39148;53.332;6.922;2022-08-11T00:32:24;2.92;;;0.88;;
53253;SDS011;39148;53.332;6.922;2022-08-11T00:34:51;2.70;;;0.80;;
53253;SDS011;39148;53.332;6.922;2022-08-11T00:37:19;2.28;;;0.90;;
53253;SDS011;39148;53.332;6.922;2022-08-11T00:39:47;3.08;;;0.90;;
53253;SDS011;39148;53.332;6.922;2022-08-11T00:47:26;1.55;;;0.75;;
53253;SDS011;39148;53.332;6.922;2022-08-11T01:04:22;1.77;;;0.60;;
53253;SDS011;39148;53.332;6.922;2022-08-11T01:07:04;3.80;;;0.95;;
53253;SDS011;39148;53.332;6.922;2022-08-11T01:15:26;2.72;;;0.80;;
53253;SDS011;39148;53.332;6.922;2022-08-11T01:18:20;3.72;;;0.90;;
53253;SDS011;39148;53.332;6.922;2022-08-11T01:43:32;1.85;;;0.68;;
53253;SDS011;39148;53.332;6.922;2022-08-11T01:50:32;1.77;;;0.60;;
53253;SDS011;39148;53.332;6.922;2022-08-11T01:55:33;2.35;;;0.90;;
53253;SDS011;39148;53.332;6.922;2022-08-11T02:00:32;3.65;;;0.80;;
53253;SDS011;39148;53.332;6.922;2022-08-11T02:03:26;1.60;;;0.70;;
53253;SDS011;39148;53.332;6.922;2022-08-11T02:05:59;1.10;;;0.60;;
53253;SDS011;39148;53.332;6.922;2022-08-11T02:09:07;1.30;;;0.70;;
53253;SDS011;39148;53.332;6.922;2022-08-11T02:11:49;2.50;;;0.90;;
53253;SDS011;39148;53.332;6.922;2022-08-11T02:18:09;2.10;;;0.70;;
53253;SDS011;39148;53.332;6.922;2022-08-11T02:20:09;2.28;;;0.70;;
53253;SDS011;39148;53.332;6.922;2022-08-11T02:23:12;2.42;;;0.93;;
53253;SDS011;39148;53.332;6.922;2022-08-11T02:26:08;2.10;;;0.70;;
53253;SDS011;39148;53.332;6.922;2022-08-11T02:31:37;3.35;;;0.90;;
53253;SDS011;39148;53.332;6.922;2022-08-11T02:42:41;3.53;;;1.70;;
53253;SDS011;39148;53.332;6.922;2022-08-11T02:57:17;4.07;;;2.35;;
53253;SDS011;39148;53.332;6.922;2022-08-11T03:10:23;4.90;;;2.70;;
53253;SDS011;39148;53.332;6.922;2022-08-11T03:19:35;5.72;;;3.13;;
53253;SDS011;39148;53.332;6.922;2022-08-11T03:22:24;6.80;;;3.35;;
53253;SDS011;39148;53.332;6.922;2022-08-11T03:25:07;5.30;;;3.25;;
53253;SDS011;39148;53.332;6.922;2022-08-11T03:33:43;6.10;;;3.75;;
53253;SDS011;39148;53.332;6.922;2022-08-11T03:41:34;7.55;;;4.45;;
53253;SDS011;39148;53.332;6.922;2022-08-11T04:09:38;7.75;;;4.30;;
53253;SDS011;39148;53.332;6.922;2022-08-11T04:12:13;8.70;;;4.47;;
53253;SDS011;39148;53.332;6.922;2022-08-11T04:23:23;7.07;;;4.32;;
53253;SDS011;39148;53.332;6.922;2022-08-11T04:29:02;5.90;;;3.83;;
53253;SDS011;39148;53.332;6.922;2022-08-11T04:43:21;6.00;;;3.95;;
53253;SDS011;39148;53.332;6.922;2022-08-11T04:55:14;8.10;;;3.90;;
53253;SDS011;39148;53.332;6.922;2022-08-11T05:10:22;5.75;;;3.38;;
53253;SDS011;39148;53.332;6.922;2022-08-11T05:12:54;7.75;;;3.40;;
53253;SDS011;39148;53.332;6.922;2022-08-11T05:15:46;5.88;;;3.75;;
53253;SDS011;39148;53.332;6.922;2022-08-11T05:18:35;6.22;;;3.42;;
53253;SDS011;39148;53.332;6.922;2022-08-11T05:21:31;6.53;;;3.50;;
53253;SDS011;39148;53.332;6.922;2022-08-11T05:24:20;6.80;;;3.00;;
53253;SDS011;39148;53.332;6.922;2022-08-11T05:27:06;5.90;;;3.25;;
53253;SDS011;39148;53.332;6.922;2022-08-11T05:30:03;5.28;;;3.13;;
53253;SDS011;39148;53.332;6.922;2022-08-11T05:33:02;5.40;;;3.05;;
53253;SDS011;39148;53.332;6.922;2022-08-11T05:35:57;7.55;;;3.38;;
53253;SDS011;39148;53.332;6.922;2022-08-11T05:38:32;5.28;;;2.97;;
53253;SDS011;39148;53.332;6.922;2022-08-11T05:41:22;5.28;;;2.90;;
53253;SDS011;39148;53.332;6.922;2022-08-11T05:44:09;4.78;;;2.45;;
53253;SDS011;39148;53.332;6.922;2022-08-11T05:47:00;5.35;;;2.75;;
53253;SDS011;39148;53.332;6.922;2022-08-11T05:49:47;5.80;;;2.45;;
53253;SDS011;39148;53.332;6.922;2022-08-11T05:52:33;5.75;;;2.88;;
53253;SDS011;39148;53.332;6.922;2022-08-11T05:55:19;5.07;;;2.30;;
53253;SDS011;39148;53.332;6.922;2022-08-11T05:58:05;4.05;;;2.35;;
53253;SDS011;39148;53.332;6.922;2022-08-11T06:00:42;3.85;;;1.90;;
53253;SDS011;39148;53.332;6.922;2022-08-11T06:03:10;5.22;;;2.35;;
53253;SDS011;39148;53.332;6.922;2022-08-11T06:05:46;5.65;;;2.40;;
53253;SDS011;39148;53.332;6.922;2022-08-11T06:08:12;6.05;;;3.10;;
53253;SDS011;39148;53.332;6.922;2022-08-11T06:10:40;4.00;;;1.95;;
53253;SDS011;39148;53.332;6.922;2022-08-11T06:13:08;4.93;;;2.33;;
53253;SDS011;39148;53.332;6.922;2022-08-11T06:15:48;4.75;;;1.95;;
53253;SDS011;39148;53.332;6.922;2022-08-11T06:18:16;5.22;;;2.08;;
53253;SDS011;39148;53.332;6.922;2022-08-11T06:23:14;5.10;;;2.17;;
53253;SDS011;39148;53.332;6.922;2022-08-11T06:25:47;4.32;;;2.05;;
53253;SDS011;39148;53.332;6.922;2022-08-11T06:28:15;5.35;;;2.22;;
53253;SDS011;39148;53.332;6.922;2022-08-11T06:30:46;3.90;;;1.88;;
53253;SDS011;39148;53.332;6.922;2022-08-11T06:33:20;3.70;;;1.83;;
53253;SDS011;39148;53.332;6.922;2022-08-11T06:36:05;4.05;;;2.13;;
53253;SDS011;39148;53.332;6.922;2022-08-11T06:41:23;4.65;;;2.45;;
53253;SDS011;39148;53.332;6.922;2022-08-11T06:49:10;8.65;;;2.08;;
53253;SDS011;39148;53.332;6.922;2022-08-11T06:52:04;5.20;;;1.80;;
53253;SDS011;39148;53.332;6.922;2022-08-11T06:54:36;5.50;;;2.22;;
53253;SDS011;39148;53.332;6.922;2022-08-11T06:57:05;2.60;;;1.40;;
53253;SDS011;39148;53.332;6.922;2022-08-11T06:59:52;4.85;;;1.88;;
53253;SDS011;39148;53.332;6.922;2022-08-11T07:02:39;5.15;;;2.10;;
53253;SDS011;39148;53.332;6.922;2022-08-11T07:05:46;8.18;;;1.80;;
53253;SDS011;39148;53.332;6.922;2022-08-11T07:14:22;3.63;;;1.73;;
53253;SDS011;39148;53.332;6.922;2022-08-11T07:17:21;5.30;;;1.83;;
53253;SDS011;39148;53.332;6.922;2022-08-11T07:19:58;4.40;;;1.73;;
53253;SDS011;39148;53.332;6.922;2022-08-11T07:22:48;3.92;;;1.70;;
53253;SDS011;39148;53.332;6.922;2022-08-11T07:25:40;4.00;;;1.60;;
53253;SDS011;39148;53.332;6.922;2022-08-11T07:28:27;3.08;;;1.42;;
53253;SDS011;39148;53.332;6.922;2022-08-11T07:31:23;3.92;;;1.40;;
53253;SDS011;39148;53.332;6.922;2022-08-11T07:36:54;4.55;;;1.40;;
53253;SDS011;39148;53.332;6.922;2022-08-11T07:39:26;6.28;;;1.90;;
53253;SDS011;39148;53.332;6.922;2022-08-11T07:42:09;5.75;;;1.70;;
53253;SDS011;39148;53.332;6.922;2022-08-11T07:44:39;3.58;;;1.50;;
53253;SDS011;39148;53.332;6.922;2022-08-11T07:47:25;5.03;;;1.70;;
53253;SDS011;39148;53.332;6.922;2022-08-11T07:50:10;4.22;;;1.90;;
53253;SDS011;39148;53.332;6.922;2022-08-11T07:52:56;5.47;;;2.10;;
53253;SDS011;39148;53.332;6.922;2022-08-11T07:55:23;3.83;;;2.10;;
53253;SDS011;39148;53.332;6.922;2022-08-11T07:57:52;4.05;;;1.80;;
53253;SDS011;39148;53.332;6.922;2022-08-11T08:00:41;5.15;;;2.20;;
53253;SDS011;39148;53.332;6.922;2022-08-11T08:06:22;6.40;;;2.08;;
53253;SDS011;39148;53.332;6.922;2022-08-11T08:09:09;5.25;;;2.25;;
53253;SDS011;39148;53.332;6.922;2022-08-11T08:11:54;5.93;;;2.10;;
53253;SDS011;39148;53.332;6.922;2022-08-11T08:14:39;5.93;;;2.28;;
53253;SDS011;39148;53.332;6.922;2022-08-11T08:17:23;5.07;;;2.20;;
53253;SDS011;39148;53.332;6.922;2022-08-11T08:20:10;5.18;;;2.13;;
53253;SDS011;39148;53.332;6.922;2022-08-11T08:22:38;5.15;;;2.10;;
53253;SDS011;39148;53.332;6.922;2022-08-11T08:25:05;5.00;;;2.35;;
53253;SDS011;39148;53.332;6.922;2022-08-11T08:27:32;5.78;;;2.20;;
53253;SDS011;39148;53.332;6.922;2022-08-11T08:29:59;3.85;;;1.88;;
53253;SDS011;39148;53.332;6.922;2022-08-11T08:32:45;4.93;;;2.13;;
53253;SDS011;39148;53.332;6.922;2022-08-11T08:35:11;5.13;;;1.80;;
53253;SDS011;39148;53.332;6.922;2022-08-11T08:37:38;4.32;;;1.85;;
53253;SDS011;39148;53.332;6.922;2022-08-11T08:40:05;5.10;;;2.10;;
53253;SDS011;39148;53.332;6.922;2022-08-11T08:42:34;4.45;;;2.00;;
53253;SDS011;39148;53.332;6.922;2022-08-11T08:45:07;4.05;;;2.05;;
53253;SDS011;39148;53.332;6.922;2022-08-11T08:47:35;5.50;;;2.00;;
53253;SDS011;39148;53.332;6.922;2022-08-11T08:50:04;6.18;;;2.10;;
53253;SDS011;39148;53.332;6.922;2022-08-11T08:52:36;4.45;;;2.10;;
53253;SDS011;39148;53.332;6.922;2022-08-11T08:55:05;5.35;;;1.73;;
53253;SDS011;39148;53.332;6.922;2022-08-11T08:57:34;6.57;;;2.13;;
53253;SDS011;39148;53.332;6.922;2022-08-11T09:00:02;4.07;;;2.00;;
53253;SDS011;39148;53.332;6.922;2022-08-11T09:02:29;3.92;;;2.10;;
53253;SDS011;39148;53.332;6.922;2022-08-11T09:04:56;4.88;;;2.10;;
53253;SDS011;39148;53.332;6.922;2022-08-11T09:07:23;4.93;;;2.08;;
53253;SDS011;39148;53.332;6.922;2022-08-11T09:09:53;4.53;;;1.80;;
53253;SDS011;39148;53.332;6.922;2022-08-11T09:12:25;3.17;;;2.00;;
53253;SDS011;39148;53.332;6.922;2022-08-11T09:17:25;4.72;;;2.10;;
53253;SDS011;39148;53.332;6.922;2022-08-11T09:19:54;3.90;;;2.00;;
53253;SDS011;39148;53.332;6.922;2022-08-11T09:22:27;3.28;;;1.75;;
53253;SDS011;39148;53.332;6.922;2022-08-11T09:25:18;4.50;;;1.92;;
53253;SDS011;39148;53.332;6.922;2022-08-11T09:28:04;4.50;;;1.90;;
53253;SDS011;39148;53.332;6.922;2022-08-11T09:30:34;4.60;;;2.00;;
53253;SDS011;39148;53.332;6.922;2022-08-11T09:33:01;3.58;;;1.90;;
53253;SDS011;39148;53.332;6.922;2022-08-11T09:35:29;5.10;;;2.20;;
53253;SDS011;39148;53.332;6.922;2022-08-11T09:37:58;4.45;;;2.03;;
53253;SDS011;39148;53.332;6.922;2022-08-11T09:40:47;5.07;;;2.20;;
53253;SDS011;39148;53.332;6.922;2022-08-11T09:43:14;4.35;;;2.15;;
53253;SDS011;39148;53.332;6.922;2022-08-11T09:46:01;4.53;;;1.90;;
53253;SDS011;39148;53.332;6.922;2022-08-11T09:48:35;4.28;;;2.15;;
53253;SDS011;39148;53.332;6.922;2022-08-11T09:51:07;4.25;;;1.80;;
53253;SDS011;39148;53.332;6.922;2022-08-11T09:53:36;3.60;;;1.85;;
53253;SDS011;39148;53.332;6.922;2022-08-11T09:56:04;3.67;;;2.00;;
53253;SDS011;39148;53.332;6.922;2022-08-11T09:58:57;3.47;;;1.80;;
53253;SDS011;39148;53.332;6.922;2022-08-11T10:01:24;5.00;;;2.03;;
53253;SDS011;39148;53.332;6.922;2022-08-11T10:04:05;3.72;;;1.90;;
53253;SDS011;39148;53.332;6.922;2022-08-11T10:06:42;4.90;;;1.83;;
53253;SDS011;39148;53.332;6.922;2022-08-11T10:12:02;3.83;;;1.73;;
53253;SDS011;39148;53.332;6.922;2022-08-11T10:14:33;5.03;;;1.92;;
53253;SDS011;39148;53.332;6.922;2022-08-11T10:17:22;3.50;;;1.88;;
53253;SDS011;39148;53.332;6.922;2022-08-11T10:19:48;3.35;;;1.98;;
53253;SDS011;39148;53.332;6.922;2022-08-11T10:22:15;3.60;;;1.63;;
53253;SDS011;39148;53.332;6.922;2022-08-11T10:25:02;3.50;;;1.60;;
53253;SDS011;39148;53.332;6.922;2022-08-11T10:27:47;3.83;;;1.92;;
53253;SDS011;39148;53.332;6.922;2022-08-11T10:30:23;2.47;;;1.40;;
53253;SDS011;39148;53.332;6.922;2022-08-11T10:33:11;4.30;;;1.75;;
53253;SDS011;39148;53.332;6.922;2022-08-11T10:35:56;3.70;;;1.70;;
53253;SDS011;39148;53.332;6.922;2022-08-11T10:38:25;3.25;;;1.60;;
53253;SDS011;39148;53.332;6.922;2022-08-11T10:40:52;3.78;;;1.80;;
53253;SDS011;39148;53.332;6.922;2022-08-11T10:43:38;3.42;;;1.50;;
53253;SDS011;39148;53.332;6.922;2022-08-11T10:46:08;2.80;;;1.42;;
53253;SDS011;39148;53.332;6.922;2022-08-11T10:48:53;3.60;;;1.70;;
53253;SDS011;39148;53.332;6.922;2022-08-11T10:51:22;3.88;;;1.50;;
53253;SDS011;39148;53.332;6.922;2022-08-11T10:54:08;3.33;;;1.60;;
53253;SDS011;39148;53.332;6.922;2022-08-11T10:56:53;4.20;;;1.65;;
53253;SDS011;39148;53.332;6.922;2022-08-11T10:59:38;4.38;;;1.73;;
53253;SDS011;39148;53.332;6.922;2022-08-11T11:02:07;4.07;;;1.50;;
53253;SDS011;39148;53.332;6.922;2022-08-11T11:04:43;2.53;;;1.27;;
53253;SDS011;39148;53.332;6.922;2022-08-11T11:09:48;3.83;;;1.30;;
53253;SDS011;39148;53.332;6.922;2022-08-11T11:12:24;3.47;;;1.35;;
53253;SDS011;39148;53.332;6.922;2022-08-11T11:15:14;4.18;;;1.20;;
53253;SDS011;39148;53.332;6.922;2022-08-11T11:18:05;3.65;;;1.45;;
53253;SDS011;39148;53.332;6.922;2022-08-11T11:20:59;4.05;;;1.38;;
53253;SDS011;39148;53.332;6.922;2022-08-11T11:23:40;3.20;;;1.38;;
53253;SDS011;39148;53.332;6.922;2022-08-11T11:37:39;3.33;;;1.40;;
53253;SDS011;39148;53.332;6.922;2022-08-11T11:40:08;2.47;;;1.20;;
53253;SDS011;39148;53.332;6.922;2022-08-11T11:42:36;3.22;;;1.20;;
53253;SDS011;39148;53.332;6.922;2022-08-11T11:45:06;2.90;;;1.20;;
53253;SDS011;39148;53.332;6.922;2022-08-11T11:47:35;3.22;;;1.50;;
53253;SDS011;39148;53.332;6.922;2022-08-11T11:50:03;2.72;;;1.20;;
53253;SDS011;39148;53.332;6.922;2022-08-11T11:52:31;2.08;;;1.10;;
53253;SDS011;39148;53.332;6.922;2022-08-11T11:54:58;3.53;;;1.35;;
53253;SDS011;39148;53.332;6.922;2022-08-11T11:57:24;3.88;;;1.42;;
53253;SDS011;39148;53.332;6.922;2022-08-11T12:00:10;3.13;;;1.35;;
53253;SDS011;39148;53.332;6.922;2022-08-11T12:02:55;3.50;;;1.38;;
53253;SDS011;39148;53.332;6.922;2022-08-11T12:05:23;3.22;;;1.13;;
53253;SDS011;39148;53.332;6.922;2022-08-11T12:07:49;4.18;;;1.52;;
53253;SDS011;39148;53.332;6.922;2022-08-11T12:10:35;2.70;;;1.30;;
53253;SDS011;39148;53.332;6.922;2022-08-11T12:13:03;2.83;;;1.27;;
53253;SDS011;39148;53.332;6.922;2022-08-11T12:15:48;3.67;;;1.67;;
53253;SDS011;39148;53.332;6.922;2022-08-11T12:18:16;2.85;;;1.10;;
53253;SDS011;39148;53.332;6.922;2022-08-11T12:20:43;2.42;;;1.17;;
53253;SDS011;39148;53.332;6.922;2022-08-11T12:23:09;3.85;;;1.50;;
53253;SDS011;39148;53.332;6.922;2022-08-11T12:25:59;4.57;;;1.42;;
53253;SDS011;39148;53.332;6.922;2022-08-11T12:28:44;2.28;;;1.00;;
53253;SDS011;39148;53.332;6.922;2022-08-11T12:31:11;3.17;;;1.20;;
53253;SDS011;39148;53.332;6.922;2022-08-11T12:33:38;3.33;;;1.40;;
53253;SDS011;39148;53.332;6.922;2022-08-11T12:36:08;3.25;;;1.40;;
53253;SDS011;39148;53.332;6.922;2022-08-11T12:38:39;3.53;;;1.42;;
53253;SDS011;39148;53.332;6.922;2022-08-11T12:41:06;3.78;;;1.20;;
53253;SDS011;39148;53.332;6.922;2022-08-11T12:43:51;2.60;;;1.17;;
53253;SDS011;39148;53.332;6.922;2022-08-11T12:46:35;2.60;;;1.30;;
53253;SDS011;39148;53.332;6.922;2022-08-11T12:49:21;3.45;;;1.30;;
53253;SDS011;39148;53.332;6.922;2022-08-11T12:52:08;3.97;;;1.10;;
53253;SDS011;39148;53.332;6.922;2022-08-11T12:57:25;3.80;;;1.02;;
53253;SDS011;39148;53.332;6.922;2022-08-11T13:00:13;3.88;;;1.40;;
53253;SDS011;39148;53.332;6.922;2022-08-11T13:02:59;2.65;;;1.50;;
53253;SDS011;39148;53.332;6.922;2022-08-11T13:05:45;2.70;;;1.50;;
53253;SDS011;39148;53.332;6.922;2022-08-11T13:08:13;2.20;;;1.00;;
53253;SDS011;39148;53.332;6.922;2022-08-11T13:10:40;2.58;;;0.90;;
53253;SDS011;39148;53.332;6.922;2022-08-11T13:13:25;4.05;;;0.95;;
53253;SDS011;39148;53.332;6.922;2022-08-11T13:15:51;3.03;;;1.05;;
53253;SDS011;39148;53.332;6.922;2022-08-11T13:18:18;1.90;;;1.00;;
53253;SDS011;39148;53.332;6.922;2022-08-11T13:20:56;3.77;;;1.03;;
53253;SDS011;39148;53.332;6.922;2022-08-11T13:23:23;2.92;;;1.10;;
53253;SDS011;39148;53.332;6.922;2022-08-11T13:25:53;3.35;;;1.20;;
53253;SDS011;39148;53.332;6.922;2022-08-11T13:28:19;2.07;;;1.10;;
53253;SDS011;39148;53.332;6.922;2022-08-11T13:30:47;3.20;;;1.10;;
53253;SDS011;39148;53.332;6.922;2022-08-11T13:33:34;2.15;;;1.10;;
53253;SDS011;39148;53.332;6.922;2022-08-11T13:36:04;4.13;;;1.20;;
53253;SDS011;39148;53.332;6.922;2022-08-11T13:38:31;2.45;;;1.00;;
53253;SDS011;39148;53.332;6.922;2022-08-11T13:40:57;3.38;;;1.20;;
53253;SDS011;39148;53.332;6.922;2022-08-11T13:43:24;2.00;;;1.00;;
53253;SDS011;39148;53.332;6.922;2022-08-11T13:45:50;1.90;;;1.00;;
53253;SDS011;39148;53.332;6.922;2022-08-11T13:48:37;2.83;;;1.10;;
53253;SDS011;39148;53.332;6.922;2022-08-11T13:51:05;4.82;;;1.55;;
53253;SDS011;39148;53.332;6.922;2022-08-11T13:53:50;8.98;;;2.67;;
53253;SDS011;39148;53.332;6.922;2022-08-11T13:56:17;11.55;;;3.00;;
53253;SDS011;39148;53.332;6.922;2022-08-11T13:58:43;9.18;;;3.13;;
53253;SDS011;39148;53.332;6.922;2022-08-11T14:01:09;12.10;;;3.63;;
53253;SDS011;39148;53.332;6.922;2022-08-11T14:03:35;11.10;;;3.78;;
53253;SDS011;39148;53.332;6.922;2022-08-11T14:06:06;10.95;;;3.42;;
53253;SDS011;39148;53.332;6.922;2022-08-11T14:08:34;14.38;;;4.95;;
53253;SDS011;39148;53.332;6.922;2022-08-11T14:11:03;12.17;;;4.03;;
53253;SDS011;39148;53.332;6.922;2022-08-11T14:13:50;12.70;;;3.92;;
53253;SDS011;39148;53.332;6.922;2022-08-11T14:18:59;13.15;;;4.35;;
53253;SDS011;39148;53.332;6.922;2022-08-11T14:21:27;11.82;;;4.20;;
53253;SDS011;39148;53.332;6.922;2022-08-11T14:24:16;13.32;;;4.30;;
53253;SDS011;39148;53.332;6.922;2022-08-11T14:26:42;11.75;;;3.80;;
53253;SDS011;39148;53.332;6.922;2022-08-11T14:29:13;11.15;;;4.03;;
53253;SDS011;39148;53.332;6.922;2022-08-11T14:31:54;14.98;;;4.55;;
53253;SDS011;39148;53.332;6.922;2022-08-11T14:34:25;14.60;;;4.55;;
53253;SDS011;39148;53.332;6.922;2022-08-11T14:36:58;14.90;;;5.05;;
53253;SDS011;39148;53.332;6.922;2022-08-11T14:42:25;13.73;;;4.70;;
53253;SDS011;39148;53.332;6.922;2022-08-11T14:45:14;14.40;;;5.50;;
53253;SDS011;39148;53.332;6.922;2022-08-11T14:48:00;19.77;;;6.33;;
53253;SDS011;39148;53.332;6.922;2022-08-11T14:50:30;15.68;;;6.32;;
53253;SDS011;39148;53.332;6.922;2022-08-11T14:53:01;16.77;;;6.07;;
53253;SDS011;39148;53.332;6.922;2022-08-11T14:55:34;15.65;;;5.85;;
53253;SDS011;39148;53.332;6.922;2022-08-11T14:58:21;19.30;;;6.80;;
53253;SDS011;39148;53.332;6.922;2022-08-11T15:00:53;16.95;;;5.93;;
53253;SDS011;39148;53.332;6.922;2022-08-11T15:03:22;16.83;;;6.07;;
53253;SDS011;39148;53.332;6.922;2022-08-11T15:05:53;17.23;;;5.95;;
53253;SDS011;39148;53.332;6.922;2022-08-11T15:08:20;18.83;;;6.63;;
53253;SDS011;39148;53.332;6.922;2022-08-11T15:11:08;19.63;;;6.82;;
53253;SDS011;39148;53.332;6.922;2022-08-11T15:13:55;18.88;;;6.45;;
53253;SDS011;39148;53.332;6.922;2022-08-11T15:16:27;21.33;;;7.55;;
53253;SDS011;39148;53.332;6.922;2022-08-11T15:19:12;22.88;;;7.32;;
53253;SDS011;39148;53.332;6.922;2022-08-11T15:21:39;19.98;;;7.28;;
53253;SDS011;39148;53.332;6.922;2022-08-11T15:24:24;18.33;;;6.70;;
53253;SDS011;39148;53.332;6.922;2022-08-11T15:26:50;24.23;;;7.85;;
53253;SDS011;39148;53.332;6.922;2022-08-11T15:29:36;19.70;;;7.10;;
53253;SDS011;39148;53.332;6.922;2022-08-11T15:32:23;14.32;;;5.20;;
53253;SDS011;39148;53.332;6.922;2022-08-11T15:35:09;18.30;;;7.50;;
53253;SDS011;39148;53.332;6.922;2022-08-11T15:37:55;16.92;;;6.05;;
53253;SDS011;39148;53.332;6.922;2022-08-11T15:43:15;18.17;;;6.30;;
53253;SDS011;39148;53.332;6.922;2022-08-11T15:46:16;13.15;;;5.68;;
53253;SDS011;39148;53.332;6.922;2022-08-11T15:48:47;13.40;;;5.25;;
53253;SDS011;39148;53.332;6.922;2022-08-11T15:51:23;14.82;;;5.60;;
53253;SDS011;39148;53.332;6.922;2022-08-11T15:54:05;15.30;;;4.93;;
53253;SDS011;39148;53.332;6.922;2022-08-11T15:56:34;11.82;;;4.68;;
53253;SDS011;39148;53.332;6.922;2022-08-11T16:01:48;14.00;;;5.13;;
53253;SDS011;39148;53.332;6.922;2022-08-11T16:04:36;13.10;;;4.55;;
53253;SDS011;39148;53.332;6.922;2022-08-11T16:07:07;12.90;;;4.88;;
53253;SDS011;39148;53.332;6.922;2022-08-11T16:09:55;12.73;;;4.45;;
53253;SDS011;39148;53.332;6.922;2022-08-11T16:12:27;13.00;;;5.25;;
53253;SDS011;39148;53.332;6.922;2022-08-11T16:15:01;15.88;;;4.93;;
53253;SDS011;39148;53.332;6.922;2022-08-11T16:17:50;13.10;;;5.28;;
53253;SDS011;39148;53.332;6.922;2022-08-11T16:20:22;10.98;;;4.32;;
53253;SDS011;39148;53.332;6.922;2022-08-11T16:22:51;9.90;;;4.20;;
53253;SDS011;39148;53.332;6.922;2022-08-11T16:25:22;10.35;;;3.92;;
53253;SDS011;39148;53.332;6.922;2022-08-11T16:27:56;8.55;;;3.72;;
53253;SDS011;39148;53.332;6.922;2022-08-11T16:30:29;8.60;;;3.40;;
53253;SDS011;39148;53.332;6.922;2022-08-11T16:32:57;7.57;;;3.03;;
53253;SDS011;39148;53.332;6.922;2022-08-11T16:35:24;6.85;;;2.53;;
53253;SDS011;39148;53.332;6.922;2022-08-11T16:38:11;9.13;;;3.03;;
53253;SDS011;39148;53.332;6.922;2022-08-11T16:40:58;9.32;;;2.97;;
53253;SDS011;39148;53.332;6.922;2022-08-11T16:43:27;5.20;;;2.30;;
53253;SDS011;39148;53.332;6.922;2022-08-11T16:46:15;6.82;;;2.20;;
53253;SDS011;39148;53.332;6.922;2022-08-11T16:49:05;5.10;;;1.98;;
53253;SDS011;39148;53.332;6.922;2022-08-11T16:51:42;8.57;;;2.10;;
53253;SDS011;39148;53.332;6.922;2022-08-11T16:54:08;6.53;;;1.95;;
53253;SDS011;39148;53.332;6.922;2022-08-11T16:56:40;7.30;;;2.10;;
53253;SDS011;39148;53.332;6.922;2022-08-11T16:59:12;5.82;;;1.70;;
53253;SDS011;39148;53.332;6.922;2022-08-11T17:01:57;6.55;;;1.90;;
53253;SDS011;39148;53.332;6.922;2022-08-11T17:04:40;6.72;;;1.42;;
53253;SDS011;39148;53.332;6.922;2022-08-11T17:07:32;3.63;;;1.42;;
53253;SDS011;39148;53.332;6.922;2022-08-11T17:10:36;5.65;;;1.30;;
53253;SDS011;39148;53.332;6.922;2022-08-11T17:13:34;4.38;;;1.58;;
53253;SDS011;39148;53.332;6.922;2022-08-11T17:16:09;4.50;;;1.48;;
53253;SDS011;39148;53.332;6.922;2022-08-11T17:18:40;4.43;;;1.60;;
53253;SDS011;39148;53.332;6.922;2022-08-11T17:21:15;4.45;;;1.40;;
53253;SDS011;39148;53.332;6.922;2022-08-11T17:23:50;4.25;;;1.67;;
53253;SDS011;39148;53.332;6.922;2022-08-11T17:26:23;4.50;;;1.20;;
53253;SDS011;39148;53.332;6.922;2022-08-11T17:39:42;4.38;;;1.30;;
53253;SDS011;39148;53.332;6.922;2022-08-11T17:42:09;4.03;;;1.08;;
53253;SDS011;39148;53.332;6.922;2022-08-11T17:44:55;3.55;;;1.10;;
53253;SDS011;39148;53.332;6.922;2022-08-11T17:47:40;3.67;;;0.98;;
53253;SDS011;39148;53.332;6.922;2022-08-11T17:50:26;4.53;;;0.98;;
53253;SDS011;39148;53.332;6.922;2022-08-11T17:52:52;5.65;;;1.33;;
53253;SDS011;39148;53.332;6.922;2022-08-11T17:55:38;3.50;;;1.10;;
53253;SDS011;39148;53.332;6.922;2022-08-11T17:58:23;5.68;;;1.17;;
53253;SDS011;39148;53.332;6.922;2022-08-11T18:01:08;3.67;;;1.20;;
53253;SDS011;39148;53.332;6.922;2022-08-11T18:03:35;3.80;;;1.02;;
53253;SDS011;39148;53.332;6.922;2022-08-11T18:06:04;3.83;;;1.10;;
53253;SDS011;39148;53.332;6.922;2022-08-11T18:08:30;3.90;;;1.20;;
53253;SDS011;39148;53.332;6.922;2022-08-11T18:11:18;4.47;;;1.15;;
53253;SDS011;39148;53.332;6.922;2022-08-11T18:14:05;3.97;;;1.00;;
53253;SDS011;39148;53.332;6.922;2022-08-11T18:16:51;3.20;;;1.00;;
53253;SDS011;39148;53.332;6.922;2022-08-11T18:19:35;3.35;;;0.90;;
53253;SDS011;39148;53.332;6.922;2022-08-11T18:22:23;2.42;;;0.77;;
53253;SDS011;39148;53.332;6.922;2022-08-11T18:25:12;2.75;;;1.00;;
53253;SDS011;39148;53.332;6.922;2022-08-11T18:27:59;2.47;;;0.77;;
53253;SDS011;39148;53.332;6.922;2022-08-11T18:30:47;3.55;;;1.15;;
53253;SDS011;39148;53.332;6.922;2022-08-11T18:33:36;3.97;;;1.13;;
53253;SDS011;39148;53.332;6.922;2022-08-11T18:36:27;3.80;;;1.00;;
53253;SDS011;39148;53.332;6.922;2022-08-11T18:39:18;3.13;;;0.80;;
53253;SDS011;39148;53.332;6.922;2022-08-11T18:42:09;2.72;;;0.93;;
53253;SDS011;39148;53.332;6.922;2022-08-11T18:45:01;2.33;;;0.80;;
53253;SDS011;39148;53.332;6.922;2022-08-11T18:47:47;3.47;;;1.13;;
53253;SDS011;39148;53.332;6.922;2022-08-11T18:50:35;2.33;;;0.80;;
53253;SDS011;39148;53.332;6.922;2022-08-11T18:53:21;5.05;;;1.48;;
53253;SDS011;39148;53.332;6.922;2022-08-11T18:56:09;2.50;;;1.00;;
53253;SDS011;39148;53.332;6.922;2022-08-11T18:58:54;1.35;;;0.73;;
53253;SDS011;39148;53.332;6.922;2022-08-11T19:01:40;2.17;;;1.08;;
53253;SDS011;39148;53.332;6.922;2022-08-11T19:16:01;3.08;;;1.00;;
53253;SDS011;39148;53.332;6.922;2022-08-11T19:18:47;2.92;;;1.10;;
53253;SDS011;39148;53.332;6.922;2022-08-11T19:21:33;2.83;;;1.00;;
53253;SDS011;39148;53.332;6.922;2022-08-11T19:24:20;2.25;;;0.95;;
53253;SDS011;39148;53.332;6.922;2022-08-11T19:27:05;2.22;;;0.82;;
53253;SDS011;39148;53.332;6.922;2022-08-11T19:29:50;5.57;;;0.85;;
53253;SDS011;39148;53.332;6.922;2022-08-11T19:32:35;3.25;;;1.15;;
53253;SDS011;39148;53.332;6.922;2022-08-11T19:35:22;2.42;;;1.05;;
53253;SDS011;39148;53.332;6.922;2022-08-11T19:38:07;2.88;;;1.05;;
53253;SDS011;39148;53.332;6.922;2022-08-11T19:40:52;3.28;;;0.90;;
53253;SDS011;39148;53.332;6.922;2022-08-11T19:43:38;2.38;;;0.98;;
53253;SDS011;39148;53.332;6.922;2022-08-11T19:46:24;2.10;;;0.95;;
53253;SDS011;39148;53.332;6.922;2022-08-11T19:49:09;2.53;;;1.05;;
53253;SDS011;39148;53.332;6.922;2022-08-11T19:51:55;3.80;;;0.98;;
53253;SDS011;39148;53.332;6.922;2022-08-11T19:54:40;2.97;;;1.10;;
53253;SDS011;39148;53.332;6.922;2022-08-11T19:57:27;5.03;;;1.00;;
53253;SDS011;39148;53.332;6.922;2022-08-11T20:00:13;2.75;;;0.90;;
53253;SDS011;39148;53.332;6.922;2022-08-11T20:03:00;1.83;;;0.77;;
53253;SDS011;39148;53.332;6.922;2022-08-11T20:05:47;3.17;;;0.90;;
53253;SDS011;39148;53.332;6.922;2022-08-11T20:08:33;2.40;;;1.02;;
53253;SDS011;39148;53.332;6.922;2022-08-11T20:11:21;1.77;;;0.95;;